sensor_id;sensor_type;location;lat;lon;timestamp;P1;durP1;ratioP1;P2;durP2;ratioP2
11078;SDS011;5592;49.234;7.268;2023-04-24T00:00:21;2.17;;;1.30;;
11078;SDS011;5592;49.234;7.268;2023-04-24T00:02:47;1.80;;;1.20;;
11078;SDS011;5592;49.234;7.268;2023-04-24T00:05:15;4.83;;;1.43;;
11078;SDS011;5592;49.234;7.268;2023-04-24T00:07:42;3.90;;;1.30;;
11078;SDS011;5592;49.234;7.268;2023-04-24T00:10:08;5.10;;;1.33;;
11078;SDS011;5592;49.234;7.268;2023-04-24T00:12:34;3.17;;;1.60;;
11078;SDS011;5592;49.234;7.268;2023-04-24T00:15:00;5.13;;;1.10;;
11078;SDS011;5592;49.234;7.268;2023-04-24T00:17:27;3.03;;;1.40;;
11078;SDS011;5592;49.234;7.268;2023-04-24T00:19:52;6.30;;;1.47;;
11078;SDS011;5592;49.234;7.268;2023-04-24T00:22:23;3.03;;;1.17;;
11078;SDS011;5592;49.234;7.268;2023-04-24T00:24:52;2.30;;;1.17;;
11078;SDS011;5592;49.234;7.268;2023-04-24T00:27:17;3.57;;;1.30;;
11078;SDS011;5592;49.234;7.268;2023-04-24T00:29:43;3.60;;;1.23;;
11078;SDS011;5592;49.234;7.268;2023-04-24T00:32:08;4.70;;;1.20;;
11078;SDS011;5592;49.234;7.268;2023-04-24T00:34:34;1.07;;;0.97;;
11078;SDS011;5592;49.234;7.268;2023-04-24T00:37:00;3.47;;;1.20;;
11078;SDS011;5592;49.234;7.268;2023-04-24T00:39:25;1.43;;;1.10;;
11078;SDS011;5592;49.234;7.268;2023-04-24T00:41:51;7.80;;;1.50;;
11078;SDS011;5592;49.234;7.268;2023-04-24T00:44:20;6.30;;;1.27;;
11078;SDS011;5592;49.234;7.268;2023-04-24T00:46:45;2.23;;;1.53;;
11078;SDS011;5592;49.234;7.268;2023-04-24T00:49:13;4.60;;;1.43;;
11078;SDS011;5592;49.234;7.268;2023-04-24T00:51:39;4.97;;;1.27;;
11078;SDS011;5592;49.234;7.268;2023-04-24T00:54:05;2.60;;;1.37;;
11078;SDS011;5592;49.234;7.268;2023-04-24T00:56:31;3.67;;;1.20;;
11078;SDS011;5592;49.234;7.268;2023-04-24T00:58:56;4.23;;;1.60;;
11078;SDS011;5592;49.234;7.268;2023-04-24T01:01:23;3.90;;;1.40;;
11078;SDS011;5592;49.234;7.268;2023-04-24T01:03:49;4.27;;;1.10;;
11078;SDS011;5592;49.234;7.268;2023-04-24T01:06:16;2.10;;;1.17;;
11078;SDS011;5592;49.234;7.268;2023-04-24T01:08:43;3.23;;;1.10;;
11078;SDS011;5592;49.234;7.268;2023-04-24T01:11:10;1.40;;;1.00;;
11078;SDS011;5592;49.234;7.268;2023-04-24T01:13:36;2.20;;;0.90;;
11078;SDS011;5592;49.234;7.268;2023-04-24T01:16:04;2.70;;;1.10;;
11078;SDS011;5592;49.234;7.268;2023-04-24T01:18:30;2.10;;;1.00;;
11078;SDS011;5592;49.234;7.268;2023-04-24T01:20:57;1.17;;;1.00;;
11078;SDS011;5592;49.234;7.268;2023-04-24T01:23:23;1.27;;;0.90;;
11078;SDS011;5592;49.234;7.268;2023-04-24T01:25:49;1.93;;;1.27;;
11078;SDS011;5592;49.234;7.268;2023-04-24T01:28:15;2.50;;;1.30;;
11078;SDS011;5592;49.234;7.268;2023-04-24T01:30:41;1.47;;;1.30;;
11078;SDS011;5592;49.234;7.268;2023-04-24T01:33:07;3.70;;;1.60;;
11078;SDS011;5592;49.234;7.268;2023-04-24T01:35:33;1.50;;;1.40;;
11078;SDS011;5592;49.234;7.268;2023-04-24T01:37:59;6.70;;;1.60;;
11078;SDS011;5592;49.234;7.268;2023-04-24T01:40:25;2.80;;;1.47;;
11078;SDS011;5592;49.234;7.268;2023-04-24T01:42:50;1.90;;;1.73;;
11078;SDS011;5592;49.234;7.268;2023-04-24T01:45:16;2.87;;;1.60;;
11078;SDS011;5592;49.234;7.268;2023-04-24T01:47:42;3.30;;;1.97;;
11078;SDS011;5592;49.234;7.268;2023-04-24T01:50:08;2.73;;;1.80;;
11078;SDS011;5592;49.234;7.268;2023-04-24T01:52:34;5.00;;;1.63;;
11078;SDS011;5592;49.234;7.268;2023-04-24T01:55:01;5.63;;;1.67;;
11078;SDS011;5592;49.234;7.268;2023-04-24T01:57:27;2.23;;;1.83;;
11078;SDS011;5592;49.234;7.268;2023-04-24T01:59:55;4.83;;;2.20;;
11078;SDS011;5592;49.234;7.268;2023-04-24T02:02:21;2.20;;;2.00;;
11078;SDS011;5592;49.234;7.268;2023-04-24T02:04:48;2.90;;;2.60;;
11078;SDS011;5592;49.234;7.268;2023-04-24T02:07:17;5.87;;;2.90;;
11078;SDS011;5592;49.234;7.268;2023-04-24T02:09:43;2.50;;;2.07;;
11078;SDS011;5592;49.234;7.268;2023-04-24T02:12:08;4.50;;;2.57;;
11078;SDS011;5592;49.234;7.268;2023-04-24T02:14:34;5.63;;;2.50;;
11078;SDS011;5592;49.234;7.268;2023-04-24T02:16:59;3.27;;;2.63;;
11078;SDS011;5592;49.234;7.268;2023-04-24T02:19:25;2.70;;;2.20;;
11078;SDS011;5592;49.234;7.268;2023-04-24T02:21:51;3.67;;;2.17;;
11078;SDS011;5592;49.234;7.268;2023-04-24T02:24:17;4.30;;;3.23;;
11078;SDS011;5592;49.234;7.268;2023-04-24T02:26:42;3.47;;;2.33;;
11078;SDS011;5592;49.234;7.268;2023-04-24T02:29:08;3.27;;;2.30;;
11078;SDS011;5592;49.234;7.268;2023-04-24T02:31:33;1.93;;;1.70;;
11078;SDS011;5592;49.234;7.268;2023-04-24T02:33:59;2.50;;;2.27;;
11078;SDS011;5592;49.234;7.268;2023-04-24T02:36:24;2.20;;;2.00;;
11078;SDS011;5592;49.234;7.268;2023-04-24T02:38:50;2.70;;;2.43;;
11078;SDS011;5592;49.234;7.268;2023-04-24T02:41:15;3.00;;;2.30;;
11078;SDS011;5592;49.234;7.268;2023-04-24T02:43:41;2.43;;;2.20;;
11078;SDS011;5592;49.234;7.268;2023-04-24T02:46:06;5.27;;;2.87;;
11078;SDS011;5592;49.234;7.268;2023-04-24T02:48:34;3.37;;;2.73;;
11078;SDS011;5592;49.234;7.268;2023-04-24T02:51:00;3.60;;;2.70;;
11078;SDS011;5592;49.234;7.268;2023-04-24T02:53:26;4.73;;;3.10;;
11078;SDS011;5592;49.234;7.268;2023-04-24T02:55:55;4.73;;;3.00;;
11078;SDS011;5592;49.234;7.268;2023-04-24T02:58:21;4.30;;;3.57;;
11078;SDS011;5592;49.234;7.268;2023-04-24T03:00:56;6.17;;;4.20;;
11078;SDS011;5592;49.234;7.268;2023-04-24T03:03:22;7.37;;;3.70;;
11078;SDS011;5592;49.234;7.268;2023-04-24T03:05:48;6.53;;;4.27;;
11078;SDS011;5592;49.234;7.268;2023-04-24T03:08:14;6.37;;;3.63;;
11078;SDS011;5592;49.234;7.268;2023-04-24T03:10:45;6.13;;;4.30;;
11078;SDS011;5592;49.234;7.268;2023-04-24T03:13:11;5.50;;;4.60;;
11078;SDS011;5592;49.234;7.268;2023-04-24T03:15:37;6.70;;;4.13;;
11078;SDS011;5592;49.234;7.268;2023-04-24T03:18:02;5.33;;;4.00;;
11078;SDS011;5592;49.234;7.268;2023-04-24T03:20:28;5.07;;;4.20;;
11078;SDS011;5592;49.234;7.268;2023-04-24T03:22:53;7.10;;;4.40;;
11078;SDS011;5592;49.234;7.268;2023-04-24T03:25:19;5.70;;;5.03;;
11078;SDS011;5592;49.234;7.268;2023-04-24T03:27:45;7.90;;;5.57;;
11078;SDS011;5592;49.234;7.268;2023-04-24T03:30:13;5.87;;;5.30;;
11078;SDS011;5592;49.234;7.268;2023-04-24T03:32:39;5.73;;;4.90;;
11078;SDS011;5592;49.234;7.268;2023-04-24T03:35:06;7.90;;;5.73;;
11078;SDS011;5592;49.234;7.268;2023-04-24T03:37:33;7.13;;;5.03;;
11078;SDS011;5592;49.234;7.268;2023-04-24T03:39:58;8.40;;;5.90;;
11078;SDS011;5592;49.234;7.268;2023-04-24T03:42:27;7.87;;;6.10;;
11078;SDS011;5592;49.234;7.268;2023-04-24T03:44:53;7.73;;;5.77;;
11078;SDS011;5592;49.234;7.268;2023-04-24T03:47:18;7.63;;;5.50;;
11078;SDS011;5592;49.234;7.268;2023-04-24T03:49:44;8.70;;;5.67;;
11078;SDS011;5592;49.234;7.268;2023-04-24T03:52:09;9.83;;;5.50;;
11078;SDS011;5592;49.234;7.268;2023-04-24T03:54:35;6.10;;;4.90;;
11078;SDS011;5592;49.234;7.268;2023-04-24T03:57:00;9.10;;;4.93;;
11078;SDS011;5592;49.234;7.268;2023-04-24T03:59:26;6.27;;;4.60;;
11078;SDS011;5592;49.234;7.268;2023-04-24T04:01:52;5.80;;;5.03;;
11078;SDS011;5592;49.234;7.268;2023-04-24T04:04:17;6.17;;;4.43;;
11078;SDS011;5592;49.234;7.268;2023-04-24T04:06:43;5.23;;;4.33;;
11078;SDS011;5592;49.234;7.268;2023-04-24T04:09:09;5.40;;;4.60;;
11078;SDS011;5592;49.234;7.268;2023-04-24T04:11:35;5.87;;;4.57;;
11078;SDS011;5592;49.234;7.268;2023-04-24T04:14:01;7.17;;;3.83;;
11078;SDS011;5592;49.234;7.268;2023-04-24T04:16:27;8.90;;;3.97;;
11078;SDS011;5592;49.234;7.268;2023-04-24T04:18:52;4.93;;;4.10;;
11078;SDS011;5592;49.234;7.268;2023-04-24T04:21:21;5.83;;;3.70;;
11078;SDS011;5592;49.234;7.268;2023-04-24T04:23:46;5.33;;;4.40;;
11078;SDS011;5592;49.234;7.268;2023-04-24T04:26:13;5.27;;;4.10;;
11078;SDS011;5592;49.234;7.268;2023-04-24T04:28:38;4.40;;;3.73;;
11078;SDS011;5592;49.234;7.268;2023-04-24T04:31:04;5.80;;;4.10;;
11078;SDS011;5592;49.234;7.268;2023-04-24T04:33:30;6.43;;;4.57;;
11078;SDS011;5592;49.234;7.268;2023-04-24T04:35:56;4.37;;;3.90;;
11078;SDS011;5592;49.234;7.268;2023-04-24T04:38:21;5.50;;;3.97;;
11078;SDS011;5592;49.234;7.268;2023-04-24T04:40:47;4.97;;;3.80;;
11078;SDS011;5592;49.234;7.268;2023-04-24T04:43:13;6.13;;;4.13;;
11078;SDS011;5592;49.234;7.268;2023-04-24T04:45:40;5.20;;;4.30;;
11078;SDS011;5592;49.234;7.268;2023-04-24T04:48:07;5.13;;;3.93;;
11078;SDS011;5592;49.234;7.268;2023-04-24T04:50:34;5.97;;;4.20;;
11078;SDS011;5592;49.234;7.268;2023-04-24T04:53:00;4.87;;;4.07;;
11078;SDS011;5592;49.234;7.268;2023-04-24T04:55:26;5.70;;;4.37;;
11078;SDS011;5592;49.234;7.268;2023-04-24T04:57:51;9.70;;;4.80;;
11078;SDS011;5592;49.234;7.268;2023-04-24T05:00:17;5.20;;;4.33;;
11078;SDS011;5592;49.234;7.268;2023-04-24T05:02:46;13.90;;;5.53;;
11078;SDS011;5592;49.234;7.268;2023-04-24T05:05:12;8.50;;;5.17;;
11078;SDS011;5592;49.234;7.268;2023-04-24T05:07:38;4.10;;;3.70;;
11078;SDS011;5592;49.234;7.268;2023-04-24T05:10:03;7.83;;;4.30;;
11078;SDS011;5592;49.234;7.268;2023-04-24T05:12:29;3.10;;;2.80;;
11078;SDS011;5592;49.234;7.268;2023-04-24T05:15:03;5.17;;;3.10;;
11078;SDS011;5592;49.234;7.268;2023-04-24T05:17:34;3.97;;;2.63;;
11078;SDS011;5592;49.234;7.268;2023-04-24T05:19:59;5.43;;;2.90;;
11078;SDS011;5592;49.234;7.268;2023-04-24T05:22:25;3.00;;;2.50;;
11078;SDS011;5592;49.234;7.268;2023-04-24T05:24:51;4.00;;;2.80;;
11078;SDS011;5592;49.234;7.268;2023-04-24T05:27:16;4.13;;;2.43;;
11078;SDS011;5592;49.234;7.268;2023-04-24T05:29:43;3.10;;;2.80;;
11078;SDS011;5592;49.234;7.268;2023-04-24T05:32:21;4.70;;;2.87;;
11078;SDS011;5592;49.234;7.268;2023-04-24T05:34:47;2.63;;;2.40;;
11078;SDS011;5592;49.234;7.268;2023-04-24T05:37:13;3.67;;;2.57;;
11078;SDS011;5592;49.234;7.268;2023-04-24T05:39:38;6.80;;;3.40;;
11078;SDS011;5592;49.234;7.268;2023-04-24T05:42:05;5.00;;;3.97;;
11078;SDS011;5592;49.234;7.268;2023-04-24T05:44:31;4.00;;;3.60;;
11078;SDS011;5592;49.234;7.268;2023-04-24T05:46:57;4.10;;;3.73;;
11078;SDS011;5592;49.234;7.268;2023-04-24T05:49:26;4.00;;;3.30;;
11078;SDS011;5592;49.234;7.268;2023-04-24T05:51:54;6.57;;;2.90;;
11078;SDS011;5592;49.234;7.268;2023-04-24T05:54:19;3.30;;;2.50;;
11078;SDS011;5592;49.234;7.268;2023-04-24T05:56:46;3.00;;;2.73;;
11078;SDS011;5592;49.234;7.268;2023-04-24T05:59:12;7.40;;;2.20;;
11078;SDS011;5592;49.234;7.268;2023-04-24T06:01:38;3.13;;;2.13;;
11078;SDS011;5592;49.234;7.268;2023-04-24T06:04:04;5.80;;;2.60;;
11078;SDS011;5592;49.234;7.268;2023-04-24T06:06:29;3.60;;;2.50;;
11078;SDS011;5592;49.234;7.268;2023-04-24T06:08:56;3.00;;;2.20;;
11078;SDS011;5592;49.234;7.268;2023-04-24T06:11:22;3.30;;;2.40;;
11078;SDS011;5592;49.234;7.268;2023-04-24T06:13:47;2.40;;;2.20;;
11078;SDS011;5592;49.234;7.268;2023-04-24T06:16:13;2.40;;;2.20;;
11078;SDS011;5592;49.234;7.268;2023-04-24T06:18:39;5.97;;;2.37;;
11078;SDS011;5592;49.234;7.268;2023-04-24T06:21:05;2.37;;;1.90;;
11078;SDS011;5592;49.234;7.268;2023-04-24T06:23:32;3.37;;;2.20;;
11078;SDS011;5592;49.234;7.268;2023-04-24T06:26:01;2.97;;;2.27;;
11078;SDS011;5592;49.234;7.268;2023-04-24T06:28:27;2.50;;;2.10;;
11078;SDS011;5592;49.234;7.268;2023-04-24T06:30:52;3.83;;;2.00;;
11078;SDS011;5592;49.234;7.268;2023-04-24T06:33:19;3.43;;;2.40;;
11078;SDS011;5592;49.234;7.268;2023-04-24T06:35:46;3.23;;;2.43;;
11078;SDS011;5592;49.234;7.268;2023-04-24T06:38:13;3.10;;;2.43;;
11078;SDS011;5592;49.234;7.268;2023-04-24T06:43:21;2.77;;;2.50;;
11078;SDS011;5592;49.234;7.268;2023-04-24T06:45:48;2.40;;;2.13;;
11078;SDS011;5592;49.234;7.268;2023-04-24T06:48:16;2.73;;;1.80;;
11078;SDS011;5592;49.234;7.268;2023-04-24T06:50:42;3.27;;;2.03;;
11078;SDS011;5592;49.234;7.268;2023-04-24T06:53:12;3.67;;;1.97;;
11078;SDS011;5592;49.234;7.268;2023-04-24T06:55:39;3.37;;;2.50;;
11078;SDS011;5592;49.234;7.268;2023-04-24T06:58:13;3.83;;;2.10;;
11078;SDS011;5592;49.234;7.268;2023-04-24T07:00:40;3.00;;;2.70;;
11078;SDS011;5592;49.234;7.268;2023-04-24T07:03:06;3.00;;;2.70;;
11078;SDS011;5592;49.234;7.268;2023-04-24T07:05:32;5.23;;;2.10;;
11078;SDS011;5592;49.234;7.268;2023-04-24T07:08:02;1.90;;;1.80;;
11078;SDS011;5592;49.234;7.268;2023-04-24T07:10:28;4.10;;;2.23;;
11078;SDS011;5592;49.234;7.268;2023-04-24T07:13:00;5.53;;;2.20;;
11078;SDS011;5592;49.234;7.268;2023-04-24T07:15:26;5.30;;;2.23;;
11078;SDS011;5592;49.234;7.268;2023-04-24T07:17:53;2.40;;;2.00;;
11078;SDS011;5592;49.234;7.268;2023-04-24T07:20:19;4.97;;;2.53;;
11078;SDS011;5592;49.234;7.268;2023-04-24T07:22:45;4.67;;;2.23;;
11078;SDS011;5592;49.234;7.268;2023-04-24T07:25:20;2.30;;;2.10;;
11078;SDS011;5592;49.234;7.268;2023-04-24T07:27:48;2.23;;;2.03;;
11078;SDS011;5592;49.234;7.268;2023-04-24T07:30:15;3.43;;;2.37;;
11078;SDS011;5592;49.234;7.268;2023-04-24T07:32:41;5.10;;;2.43;;
11078;SDS011;5592;49.234;7.268;2023-04-24T07:35:16;2.50;;;2.17;;
11078;SDS011;5592;49.234;7.268;2023-04-24T07:37:44;2.50;;;2.17;;
11078;SDS011;5592;49.234;7.268;2023-04-24T07:40:13;4.10;;;2.23;;
11078;SDS011;5592;49.234;7.268;2023-04-24T07:42:40;3.37;;;2.10;;
11078;SDS011;5592;49.234;7.268;2023-04-24T07:50:25;3.30;;;2.53;;
11078;SDS011;5592;49.234;7.268;2023-04-24T07:52:53;3.90;;;2.70;;
11078;SDS011;5592;49.234;7.268;2023-04-24T07:55:19;5.27;;;2.57;;
11078;SDS011;5592;49.234;7.268;2023-04-24T07:57:45;7.83;;;2.90;;
11078;SDS011;5592;49.234;7.268;2023-04-24T08:00:11;2.80;;;2.47;;
11078;SDS011;5592;49.234;7.268;2023-04-24T08:02:40;2.83;;;2.10;;
11078;SDS011;5592;49.234;7.268;2023-04-24T08:05:10;3.40;;;3.10;;
11078;SDS011;5592;49.234;7.268;2023-04-24T08:07:36;5.27;;;3.23;;
11078;SDS011;5592;49.234;7.268;2023-04-24T08:10:06;5.90;;;2.87;;
11078;SDS011;5592;49.234;7.268;2023-04-24T08:12:33;4.23;;;2.93;;
11078;SDS011;5592;49.234;7.268;2023-04-24T08:14:58;4.33;;;3.93;;
11078;SDS011;5592;49.234;7.268;2023-04-24T08:17:25;5.10;;;3.70;;
11078;SDS011;5592;49.234;7.268;2023-04-24T08:19:58;5.90;;;3.70;;
11078;SDS011;5592;49.234;7.268;2023-04-24T08:22:29;5.10;;;3.57;;
11078;SDS011;5592;49.234;7.268;2023-04-24T08:25:15;4.57;;;3.37;;
11078;SDS011;5592;49.234;7.268;2023-04-24T08:27:43;4.50;;;3.20;;
11078;SDS011;5592;49.234;7.268;2023-04-24T08:30:09;4.13;;;3.67;;
11078;SDS011;5592;49.234;7.268;2023-04-24T08:32:35;7.50;;;4.00;;
11078;SDS011;5592;49.234;7.268;2023-04-24T08:35:06;7.17;;;4.13;;
11078;SDS011;5592;49.234;7.268;2023-04-24T08:37:37;8.13;;;4.27;;
11078;SDS011;5592;49.234;7.268;2023-04-24T08:40:05;5.63;;;4.30;;
11078;SDS011;5592;49.234;7.268;2023-04-24T08:42:36;5.77;;;3.60;;
11078;SDS011;5592;49.234;7.268;2023-04-24T08:45:02;4.63;;;4.20;;
11078;SDS011;5592;49.234;7.268;2023-04-24T08:47:28;5.67;;;4.43;;
11078;SDS011;5592;49.234;7.268;2023-04-24T08:52:30;6.63;;;5.50;;
11078;SDS011;5592;49.234;7.268;2023-04-24T08:54:57;5.60;;;4.27;;
11078;SDS011;5592;49.234;7.268;2023-04-24T08:57:25;5.47;;;4.83;;
11078;SDS011;5592;49.234;7.268;2023-04-24T08:59:51;5.73;;;4.47;;
11078;SDS011;5592;49.234;7.268;2023-04-24T09:02:18;7.83;;;4.70;;
11078;SDS011;5592;49.234;7.268;2023-04-24T09:04:44;5.67;;;4.63;;
11078;SDS011;5592;49.234;7.268;2023-04-24T09:07:12;7.03;;;6.33;;
11078;SDS011;5592;49.234;7.268;2023-04-24T09:09:40;6.33;;;4.43;;
11078;SDS011;5592;49.234;7.268;2023-04-24T09:12:06;7.10;;;5.10;;
11078;SDS011;5592;49.234;7.268;2023-04-24T09:14:35;7.17;;;4.97;;
11078;SDS011;5592;49.234;7.268;2023-04-24T09:17:04;8.83;;;5.33;;
11078;SDS011;5592;49.234;7.268;2023-04-24T09:19:31;8.90;;;5.63;;
11078;SDS011;5592;49.234;7.268;2023-04-24T09:21:56;7.60;;;5.13;;
11078;SDS011;5592;49.234;7.268;2023-04-24T09:24:22;6.73;;;5.17;;
11078;SDS011;5592;49.234;7.268;2023-04-24T09:26:48;6.90;;;5.80;;
11078;SDS011;5592;49.234;7.268;2023-04-24T09:29:22;7.90;;;5.13;;
11078;SDS011;5592;49.234;7.268;2023-04-24T09:31:47;6.90;;;4.93;;
11078;SDS011;5592;49.234;7.268;2023-04-24T09:34:13;6.43;;;4.73;;
11078;SDS011;5592;49.234;7.268;2023-04-24T09:36:42;8.40;;;5.13;;
11078;SDS011;5592;49.234;7.268;2023-04-24T09:39:09;7.30;;;5.23;;
11078;SDS011;5592;49.234;7.268;2023-04-24T09:44:13;8.03;;;5.53;;
11078;SDS011;5592;49.234;7.268;2023-04-24T09:46:43;6.70;;;5.20;;
11078;SDS011;5592;49.234;7.268;2023-04-24T09:49:14;7.73;;;5.37;;
11078;SDS011;5592;49.234;7.268;2023-04-24T09:51:41;10.40;;;6.50;;
11078;SDS011;5592;49.234;7.268;2023-04-24T09:54:13;6.40;;;5.70;;
11078;SDS011;5592;49.234;7.268;2023-04-24T09:56:43;6.50;;;5.30;;
11078;SDS011;5592;49.234;7.268;2023-04-24T09:59:10;12.83;;;5.37;;
11078;SDS011;5592;49.234;7.268;2023-04-24T10:01:36;11.83;;;5.97;;
11078;SDS011;5592;49.234;7.268;2023-04-24T10:04:03;7.50;;;5.93;;
11078;SDS011;5592;49.234;7.268;2023-04-24T10:06:31;7.53;;;5.00;;
11078;SDS011;5592;49.234;7.268;2023-04-24T10:09:00;9.13;;;4.90;;
11078;SDS011;5592;49.234;7.268;2023-04-24T10:11:27;8.90;;;5.90;;
11078;SDS011;5592;49.234;7.268;2023-04-24T10:13:53;10.03;;;5.23;;
11078;SDS011;5592;49.234;7.268;2023-04-24T10:16:20;8.30;;;5.40;;
11078;SDS011;5592;49.234;7.268;2023-04-24T10:18:48;7.53;;;5.27;;
11078;SDS011;5592;49.234;7.268;2023-04-24T10:21:14;6.20;;;4.83;;
11078;SDS011;5592;49.234;7.268;2023-04-24T10:23:41;6.77;;;5.03;;
11078;SDS011;5592;49.234;7.268;2023-04-24T10:26:08;12.13;;;5.40;;
11078;SDS011;5592;49.234;7.268;2023-04-24T10:28:35;7.70;;;5.23;;
11078;SDS011;5592;49.234;7.268;2023-04-24T10:31:01;9.50;;;6.20;;
11078;SDS011;5592;49.234;7.268;2023-04-24T10:33:30;10.70;;;5.97;;
11078;SDS011;5592;49.234;7.268;2023-04-24T10:35:56;7.80;;;5.10;;
11078;SDS011;5592;49.234;7.268;2023-04-24T10:38:24;6.80;;;4.80;;
11078;SDS011;5592;49.234;7.268;2023-04-24T10:41:14;8.00;;;5.97;;
11078;SDS011;5592;49.234;7.268;2023-04-24T10:43:44;8.33;;;4.60;;
11078;SDS011;5592;49.234;7.268;2023-04-24T10:46:11;5.70;;;4.80;;
11078;SDS011;5592;49.234;7.268;2023-04-24T10:48:51;10.20;;;5.57;;
11078;SDS011;5592;49.234;7.268;2023-04-24T10:51:21;7.77;;;4.00;;
11078;SDS011;5592;49.234;7.268;2023-04-24T10:54:26;4.67;;;4.17;;
11078;SDS011;5592;49.234;7.268;2023-04-24T10:59:51;6.27;;;4.40;;
11078;SDS011;5592;49.234;7.268;2023-04-24T11:02:35;5.40;;;4.13;;
11078;SDS011;5592;49.234;7.268;2023-04-24T11:05:03;8.57;;;3.73;;
11078;SDS011;5592;49.234;7.268;2023-04-24T11:07:29;11.43;;;4.13;;
11078;SDS011;5592;49.234;7.268;2023-04-24T11:09:58;5.13;;;4.10;;
11078;SDS011;5592;49.234;7.268;2023-04-24T11:12:26;9.67;;;4.40;;
11078;SDS011;5592;49.234;7.268;2023-04-24T11:17:31;5.90;;;4.60;;
11078;SDS011;5592;49.234;7.268;2023-04-24T11:20:04;6.50;;;4.33;;
11078;SDS011;5592;49.234;7.268;2023-04-24T11:22:35;6.10;;;4.00;;
11078;SDS011;5592;49.234;7.268;2023-04-24T11:25:07;6.40;;;4.30;;
11078;SDS011;5592;49.234;7.268;2023-04-24T11:27:43;6.03;;;3.70;;
11078;SDS011;5592;49.234;7.268;2023-04-24T11:30:11;7.20;;;4.07;;
11078;SDS011;5592;49.234;7.268;2023-04-24T11:32:37;7.30;;;4.80;;
11078;SDS011;5592;49.234;7.268;2023-04-24T11:37:42;7.60;;;4.73;;
11078;SDS011;5592;49.234;7.268;2023-04-24T11:40:11;8.70;;;4.00;;
11078;SDS011;5592;49.234;7.268;2023-04-24T11:42:38;6.43;;;4.43;;
11078;SDS011;5592;49.234;7.268;2023-04-24T11:45:11;4.93;;;4.03;;
11078;SDS011;5592;49.234;7.268;2023-04-24T11:47:47;4.50;;;3.50;;
11078;SDS011;5592;49.234;7.268;2023-04-24T11:50:14;5.20;;;4.20;;
11078;SDS011;5592;49.234;7.268;2023-04-24T11:52:41;6.37;;;3.83;;
11078;SDS011;5592;49.234;7.268;2023-04-24T11:57:47;8.57;;;4.00;;
11078;SDS011;5592;49.234;7.268;2023-04-24T12:00:18;3.87;;;3.50;;
11078;SDS011;5592;49.234;7.268;2023-04-24T12:02:45;4.73;;;3.90;;
11078;SDS011;5592;49.234;7.268;2023-04-24T12:05:24;6.07;;;3.77;;
11078;SDS011;5592;49.234;7.268;2023-04-24T12:07:53;7.13;;;3.90;;
11078;SDS011;5592;49.234;7.268;2023-04-24T12:10:20;6.20;;;4.63;;
11078;SDS011;5592;49.234;7.268;2023-04-24T12:12:50;8.70;;;4.43;;
11078;SDS011;5592;49.234;7.268;2023-04-24T12:15:17;7.67;;;4.30;;
11078;SDS011;5592;49.234;7.268;2023-04-24T12:17:45;5.63;;;5.00;;
11078;SDS011;5592;49.234;7.268;2023-04-24T12:20:10;8.97;;;4.90;;
11078;SDS011;5592;49.234;7.268;2023-04-24T12:22:50;4.93;;;4.10;;
11078;SDS011;5592;49.234;7.268;2023-04-24T12:25:27;7.33;;;4.60;;
11078;SDS011;5592;49.234;7.268;2023-04-24T12:30:26;5.37;;;3.90;;
11078;SDS011;5592;49.234;7.268;2023-04-24T12:32:57;6.43;;;4.40;;
11078;SDS011;5592;49.234;7.268;2023-04-24T12:35:24;5.53;;;3.80;;
11078;SDS011;5592;49.234;7.268;2023-04-24T12:37:52;4.90;;;4.00;;
11078;SDS011;5592;49.234;7.268;2023-04-24T12:40:20;4.30;;;3.90;;
11078;SDS011;5592;49.234;7.268;2023-04-24T12:42:50;4.20;;;3.80;;
11078;SDS011;5592;49.234;7.268;2023-04-24T12:45:17;4.93;;;3.40;;
11078;SDS011;5592;49.234;7.268;2023-04-24T12:47:43;5.40;;;3.50;;
11078;SDS011;5592;49.234;7.268;2023-04-24T12:50:10;7.57;;;3.80;;
11078;SDS011;5592;49.234;7.268;2023-04-24T12:52:40;7.23;;;3.87;;
11078;SDS011;5592;49.234;7.268;2023-04-24T12:55:07;4.27;;;3.77;;
11078;SDS011;5592;49.234;7.268;2023-04-24T12:57:33;4.97;;;3.97;;
11078;SDS011;5592;49.234;7.268;2023-04-24T13:00:00;13.07;;;3.90;;
11078;SDS011;5592;49.234;7.268;2023-04-24T13:02:30;5.63;;;4.37;;
11078;SDS011;5592;49.234;7.268;2023-04-24T13:04:56;5.60;;;4.10;;
11078;SDS011;5592;49.234;7.268;2023-04-24T13:07:23;4.67;;;3.30;;
11078;SDS011;5592;49.234;7.268;2023-04-24T13:09:49;7.83;;;4.30;;
11078;SDS011;5592;49.234;7.268;2023-04-24T13:12:19;5.93;;;4.10;;
11078;SDS011;5592;49.234;7.268;2023-04-24T13:14:45;6.40;;;3.53;;
11078;SDS011;5592;49.234;7.268;2023-04-24T13:17:11;5.07;;;4.23;;
11078;SDS011;5592;49.234;7.268;2023-04-24T13:19:38;8.40;;;4.70;;
11078;SDS011;5592;49.234;7.268;2023-04-24T13:22:05;5.80;;;4.50;;
11078;SDS011;5592;49.234;7.268;2023-04-24T13:24:32;6.40;;;4.33;;
11078;SDS011;5592;49.234;7.268;2023-04-24T13:27:02;7.70;;;5.13;;
11078;SDS011;5592;49.234;7.268;2023-04-24T13:29:28;6.17;;;4.80;;
11078;SDS011;5592;49.234;7.268;2023-04-24T13:31:56;5.90;;;4.40;;
11078;SDS011;5592;49.234;7.268;2023-04-24T13:34:23;7.03;;;4.40;;
11078;SDS011;5592;49.234;7.268;2023-04-24T13:36:52;7.50;;;3.97;;
11078;SDS011;5592;49.234;7.268;2023-04-24T13:39:19;5.20;;;3.90;;
11078;SDS011;5592;49.234;7.268;2023-04-24T13:41:45;3.20;;;2.90;;
11078;SDS011;5592;49.234;7.268;2023-04-24T13:44:13;4.87;;;3.80;;
11078;SDS011;5592;49.234;7.268;2023-04-24T13:46:48;4.80;;;3.80;;
11078;SDS011;5592;49.234;7.268;2023-04-24T13:49:19;6.30;;;3.80;;
11078;SDS011;5592;49.234;7.268;2023-04-24T13:51:46;5.17;;;3.23;;
11078;SDS011;5592;49.234;7.268;2023-04-24T13:54:12;7.30;;;3.70;;
11078;SDS011;5592;49.234;7.268;2023-04-24T13:56:38;3.83;;;3.53;;
11078;SDS011;5592;49.234;7.268;2023-04-24T13:59:05;4.73;;;3.30;;
11078;SDS011;5592;49.234;7.268;2023-04-24T14:01:31;6.83;;;3.70;;
11078;SDS011;5592;49.234;7.268;2023-04-24T14:03:57;4.77;;;3.17;;
11078;SDS011;5592;49.234;7.268;2023-04-24T14:06:22;4.57;;;3.20;;
11078;SDS011;5592;49.234;7.268;2023-04-24T14:08:48;3.50;;;3.20;;
11078;SDS011;5592;49.234;7.268;2023-04-24T14:11:15;4.33;;;2.50;;
11078;SDS011;5592;49.234;7.268;2023-04-24T14:13:42;2.30;;;2.10;;
11078;SDS011;5592;49.234;7.268;2023-04-24T14:16:08;3.30;;;2.10;;
11078;SDS011;5592;49.234;7.268;2023-04-24T14:18:34;4.70;;;2.93;;
11078;SDS011;5592;49.234;7.268;2023-04-24T14:21:01;4.37;;;2.63;;
11078;SDS011;5592;49.234;7.268;2023-04-24T14:23:27;3.60;;;2.90;;
11078;SDS011;5592;49.234;7.268;2023-04-24T14:25:52;4.03;;;2.80;;
11078;SDS011;5592;49.234;7.268;2023-04-24T14:28:18;5.10;;;2.97;;
11078;SDS011;5592;49.234;7.268;2023-04-24T14:30:45;3.50;;;2.90;;
11078;SDS011;5592;49.234;7.268;2023-04-24T14:33:11;10.20;;;3.50;;
11078;SDS011;5592;49.234;7.268;2023-04-24T14:35:37;2.93;;;2.63;;
11078;SDS011;5592;49.234;7.268;2023-04-24T14:38:03;3.63;;;2.60;;
11078;SDS011;5592;49.234;7.268;2023-04-24T14:40:29;4.20;;;3.10;;
11078;SDS011;5592;49.234;7.268;2023-04-24T14:42:56;5.10;;;2.90;;
11078;SDS011;5592;49.234;7.268;2023-04-24T14:45:22;5.87;;;2.93;;
11078;SDS011;5592;49.234;7.268;2023-04-24T14:47:48;6.50;;;3.20;;
11078;SDS011;5592;49.234;7.268;2023-04-24T14:50:14;5.03;;;3.17;;
11078;SDS011;5592;49.234;7.268;2023-04-24T14:52:40;3.70;;;3.00;;
11078;SDS011;5592;49.234;7.268;2023-04-24T14:55:05;4.57;;;3.00;;
11078;SDS011;5592;49.234;7.268;2023-04-24T14:57:32;5.57;;;2.97;;
11078;SDS011;5592;49.234;7.268;2023-04-24T14:59:58;3.37;;;2.93;;
11078;SDS011;5592;49.234;7.268;2023-04-24T15:02:23;5.13;;;3.07;;
11078;SDS011;5592;49.234;7.268;2023-04-24T15:04:49;4.60;;;3.00;;
11078;SDS011;5592;49.234;7.268;2023-04-24T15:07:15;4.63;;;2.77;;
11078;SDS011;5592;49.234;7.268;2023-04-24T15:09:40;4.13;;;2.90;;
11078;SDS011;5592;49.234;7.268;2023-04-24T15:12:06;4.37;;;3.40;;
11078;SDS011;5592;49.234;7.268;2023-04-24T15:14:31;3.23;;;2.70;;
11078;SDS011;5592;49.234;7.268;2023-04-24T15:16:57;2.90;;;2.57;;
11078;SDS011;5592;49.234;7.268;2023-04-24T15:19:23;5.03;;;2.30;;
11078;SDS011;5592;49.234;7.268;2023-04-24T15:21:48;4.40;;;2.30;;
11078;SDS011;5592;49.234;7.268;2023-04-24T15:24:14;4.10;;;2.17;;
11078;SDS011;5592;49.234;7.268;2023-04-24T15:26:39;3.40;;;2.20;;